Time;durP1;ratioP1;P1;durP2;ratioP2;P2;SDS_P1;SDS_P2;PMS_P1;PMS_P2;Temp;Humidity;BMP_temperature;BMP_pressure;BME280_temperature;BME280_humidity;BME280_pressure;Samples;Min_cycle;Max_cycle;Signal;HPM_P1;HPM_P2
2021/12/07 00:01:05;;;;;;;;;;;1.10;99.90;;;;;;5033770;28;19921;-88
2021/12/07 00:03:30;;;;;;;;;;;1.10;99.90;;;;;;5032839;28;19917;-88
2021/12/07 00:05:56;;;;;;;;;;;1.20;99.90;;;;;;5048324;28;20012;-88
2021/12/07 00:08:22;;;;;;;;;;;1.10;99.90;;;;;;5033524;28;19913;-89
2021/12/07 00:10:50;;;;;;;;;;;1.10;99.90;;;;;;5034272;28;19959;-83
2021/12/07 00:13:15;;;;;;;;;;;1.20;99.90;;;;;;5049338;28;19913;-88
2021/12/07 00:15:41;;;;;;;;;;;1.20;99.90;;;;;;5032362;28;19913;-86
2021/12/07 00:18:06;;;;;;;;;;;1.20;99.90;;;;;;5033419;28;19967;-83
2021/12/07 00:20:32;;;;;;;;;;;1.20;99.90;;;;;;5034386;28;19928;-87
2021/12/07 00:23:00;;;;;;;;;;;1.20;99.90;;;;;;5049238;28;19921;-87
2021/12/07 00:25:26;;;;;;;;;;;1.20;99.90;;;;;;5049141;28;20277;-88
2021/12/07 00:27:52;;;;;;;;;;;1.30;99.90;;;;;;5033722;28;19996;-92
2021/12/07 00:30:17;;;;;;;;;;;1.30;99.90;;;;;;5050547;28;19913;-81
2021/12/07 00:32:50;;;;;;;;;;;1.30;99.90;;;;;;5033313;28;19979;-90
2021/12/07 00:35:33;;;;;;;;;;;1.30;99.90;;;;;;5032558;28;20186;-91
2021/12/07 00:38:00;;;;;;;;;;;1.30;99.90;;;;;;5031745;28;20343;-90
2021/12/07 00:40:26;;;;;;;;;;;1.40;99.90;;;;;;5032738;28;20292;-91
2021/12/07 00:42:51;;;;;;;;;;;1.40;99.90;;;;;;5033350;28;19967;-91
2021/12/07 00:45:20;;;;;;;;;;;1.40;99.90;;;;;;5032610;28;19925;-77
2021/12/07 00:47:47;;;;;;;;;;;1.30;99.90;;;;;;5048036;28;19944;-90
2021/12/07 00:50:13;;;;;;;;;;;1.30;99.90;;;;;;5048374;28;19960;-88
2021/12/07 00:52:38;;;;;;;;;;;1.30;99.90;;;;;;5032196;28;19955;-88
2021/12/07 00:55:09;;;;;;;;;;;1.30;99.90;;;;;;5031855;28;19917;-89
2021/12/07 00:57:35;;;;;;;;;;;1.30;99.90;;;;;;5033513;28;19953;-89
2021/12/07 01:00:03;;;;;;;;;;;1.30;99.90;;;;;;5031333;28;19963;-89
2021/12/07 01:02:29;;;;;;;;;;;1.30;99.90;;;;;;5033071;28;19932;-90
2021/12/07 01:05:02;;;;;;;;;;;1.30;99.90;;;;;;5031714;28;19909;-90
2021/12/07 01:26:34;;;;;;;;;;;1.30;99.90;;;;;;5032014;28;20388;-88
2021/12/07 01:29:00;;;;;;;;;;;1.30;99.90;;;;;;5032212;28;19928;-88
2021/12/07 01:31:37;;;;;;;;;;;1.30;99.90;;;;;;5032775;28;20358;-89
2021/12/07 01:34:22;;;;;;;;;;;1.30;99.90;;;;;;5029476;28;19966;-90
2021/12/07 01:37:16;;;;;;;;;;;1.40;99.90;;;;;;5032056;28;20011;-84
2021/12/07 01:49:39;;;;;;;;;;;1.40;99.90;;;;;;5031371;28;20221;-88
2021/12/07 01:51:08;;;;;;;;;;;1.30;99.90;;;;;;5031828;28;19917;-89
2021/12/07 02:01:47;;;;;;;;;;;1.30;99.90;;;;;;5029833;28;19932;-89
2021/12/07 02:04:13;;;;;;;;;;;1.40;99.90;;;;;;5031254;28;19922;-89
2021/12/07 02:06:38;;;;;;;;;;;1.40;99.90;;;;;;5031212;28;19921;-89
2021/12/07 02:09:06;;;;;;;;;;;1.40;99.90;;;;;;5031874;28;19960;-89
2021/12/07 02:11:32;;;;;;;;;;;1.40;99.90;;;;;;5046755;28;19921;-89
2021/12/07 02:16:26;;;;;;;;;;;1.50;99.90;;;;;;5034935;28;20337;-88
2021/12/07 02:18:52;;;;;;;;;;;1.50;99.90;;;;;;5050960;28;19967;-89
2021/12/07 02:21:19;;;;;;;;;;;1.60;99.90;;;;;;5036046;28;20220;-86
2021/12/07 02:23:44;;;;;;;;;;;1.70;99.90;;;;;;5033604;28;19967;-87
2021/12/07 02:26:10;;;;;;;;;;;1.80;99.90;;;;;;5049713;28;19917;-83
2021/12/07 02:28:39;;;;;;;;;;;1.90;99.90;;;;;;5034056;28;19913;-84
2021/12/07 02:31:05;;;;;;;;;;;2.00;99.90;;;;;;5035953;28;19909;-86
2021/12/07 02:33:31;;;;;;;;;;;2.10;99.90;;;;;;5050184;28;20267;-86
2021/12/07 02:35:57;;;;;;;;;;;2.30;99.90;;;;;;5050306;28;19921;-87
2021/12/07 02:38:23;;;;;;;;;;;2.30;99.90;;;;;;5032402;28;19923;-86
2021/12/07 02:40:48;;;;;;;;;;;2.30;99.90;;;;;;5051738;28;19917;-88
2021/12/07 02:43:14;;;;;;;;;;;2.30;99.90;;;;;;5034613;28;19998;-86
2021/12/07 02:45:40;;;;;;;;;;;2.40;99.90;;;;;;5034465;28;20316;-87
2021/12/07 02:48:05;;;;;;;;;;;2.40;99.90;;;;;;5035856;28;20383;-85
2021/12/07 02:50:33;;;;;;;;;;;2.40;99.90;;;;;;5035463;28;19924;-84
2021/12/07 02:52:59;;;;;;;;;;;2.40;99.90;;;;;;5034907;28;19913;-88
2021/12/07 02:55:25;;;;;;;;;;;2.40;99.90;;;;;;5033650;28;19919;-86
2021/12/07 02:57:51;;;;;;;;;;;2.50;99.90;;;;;;5033224;28;19921;-87
2021/12/07 03:00:21;;;;;;;;;;;2.50;99.90;;;;;;5034280;28;19917;-89
2021/12/07 03:02:55;;;;;;;;;;;2.50;99.90;;;;;;5034483;28;20212;-89
2021/12/07 03:27:05;;;;;;;;;;;2.00;99.90;;;;;;5024059;28;19960;-89
2021/12/07 03:29:31;;;;;;;;;;;2.00;99.90;;;;;;5034924;28;19960;-88
2021/12/07 03:31:59;;;;;;;;;;;1.90;99.90;;;;;;5033991;28;20316;-89
2021/12/07 03:34:25;;;;;;;;;;;2.00;99.90;;;;;;5032898;28;19996;-89
2021/12/07 03:36:51;;;;;;;;;;;2.00;99.90;;;;;;5034188;28;20286;-89
2021/12/07 03:39:16;;;;;;;;;;;2.00;99.90;;;;;;5034496;28;19933;-88
2021/12/07 03:41:42;;;;;;;;;;;2.10;99.90;;;;;;5033094;28;19917;-87
2021/12/07 03:44:07;;;;;;;;;;;2.10;99.90;;;;;;5034733;28;19974;-86
2021/12/07 03:46:33;;;;;;;;;;;2.20;99.90;;;;;;5033268;28;19913;-86
2021/12/07 03:48:59;;;;;;;;;;;2.30;99.90;;;;;;5033017;28;19955;-85
2021/12/07 03:51:25;;;;;;;;;;;2.50;99.90;;;;;;5032302;28;19987;-87
2021/12/07 03:53:50;;;;;;;;;;;2.60;99.90;;;;;;5049427;28;19917;-88
2021/12/07 03:56:16;;;;;;;;;;;2.60;99.90;;;;;;5034118;28;20858;-86
2021/12/07 03:58:41;;;;;;;;;;;2.70;99.90;;;;;;5033948;28;19960;-86
2021/12/07 04:01:10;;;;;;;;;;;2.80;99.90;;;;;;5034401;28;19967;-88
2021/12/07 04:03:36;;;;;;;;;;;2.90;99.90;;;;;;5049464;28;19963;-88
2021/12/07 04:06:05;;;;;;;;;;;2.90;99.90;;;;;;5047780;28;20229;-88
2021/12/07 04:08:32;;;;;;;;;;;3.00;99.90;;;;;;5033748;28;19956;-88
2021/12/07 04:10:58;;;;;;;;;;;2.90;99.90;;;;;;5049256;28;19936;-85
2021/12/07 04:13:24;;;;;;;;;;;2.90;99.90;;;;;;5035834;28;20320;-86
2021/12/07 04:15:50;;;;;;;;;;;3.00;99.90;;;;;;5031962;28;20316;-84
2021/12/07 04:18:15;;;;;;;;;;;3.10;99.90;;;;;;5032164;28;19917;-84
2021/12/07 04:20:41;;;;;;;;;;;3.30;99.90;;;;;;5032186;28;20352;-86
2021/12/07 04:23:07;;;;;;;;;;;3.40;99.90;;;;;;5049437;28;20259;-89
2021/12/07 04:25:34;;;;;;;;;;;3.50;99.90;;;;;;5032329;28;19917;-85
2021/12/07 04:28:00;;;;;;;;;;;3.60;99.90;;;;;;5033105;28;19917;-90
2021/12/07 04:30:27;;;;;;;;;;;3.60;99.90;;;;;;5033597;28;19913;-87
2021/12/07 04:32:53;;;;;;;;;;;3.60;99.90;;;;;;5047686;28;20243;-89
2021/12/07 04:35:19;;;;;;;;;;;3.70;99.90;;;;;;5031267;28;19913;-87
2021/12/07 04:37:45;;;;;;;;;;;3.60;99.90;;;;;;5032732;28;19921;-86
2021/12/07 04:40:12;;;;;;;;;;;3.60;99.90;;;;;;5031541;28;19913;-92
2021/12/07 04:42:39;;;;;;;;;;;3.60;99.90;;;;;;5032836;28;19968;-91
2021/12/07 04:45:10;;;;;;;;;;;3.70;99.90;;;;;;5048675;28;19921;-91
2021/12/07 04:50:29;;;;;;;;;;;3.80;99.90;;;;;;5033010;28;20243;-88
2021/12/07 04:58:07;;;;;;;;;;;4.10;99.90;;;;;;5031436;28;19917;-82
2021/12/07 05:00:32;;;;;;;;;;;4.10;99.90;;;;;;5032059;28;19920;-88
2021/12/07 05:03:03;;;;;;;;;;;4.20;99.90;;;;;;5045906;28;20003;-86
2021/12/07 05:05:33;;;;;;;;;;;4.20;99.90;;;;;;5046672;28;19913;-88
2021/12/07 05:08:02;;;;;;;;;;;4.10;99.90;;;;;;5047718;28;19957;-89
2021/12/07 05:10:31;;;;;;;;;;;4.00;99.90;;;;;;5044418;28;19918;-87
2021/12/07 05:39:47;;;;;;;;;;;3.50;99.90;;;;;;5030180;28;19928;-84
2021/12/07 05:42:13;;;;;;;;;;;3.60;99.90;;;;;;5030247;28;19921;-83
2021/12/07 05:44:38;;;;;;;;;;;3.60;99.90;;;;;;5031003;28;19929;-83
2021/12/07 05:47:05;;;;;;;;;;;3.70;99.90;;;;;;5030443;28;20011;-84
2021/12/07 05:49:30;;;;;;;;;;;3.70;99.90;;;;;;5030583;28;19914;-90
2021/12/07 05:51:56;;;;;;;;;;;3.80;99.90;;;;;;5030562;28;19956;-88
2021/12/07 05:54:21;;;;;;;;;;;3.80;99.90;;;;;;5031053;28;19979;-90
2021/12/07 05:56:47;;;;;;;;;;;3.80;99.90;;;;;;5044362;28;19913;-82
2021/12/07 05:59:14;;;;;;;;;;;3.70;99.90;;;;;;5031680;28;19933;-90
2021/12/07 06:01:40;;;;;;;;;;;3.70;99.90;;;;;;5029143;28;19917;-87
2021/12/07 06:04:05;;;;;;;;;;;3.70;99.90;;;;;;5026881;28;20228;-91
2021/12/07 06:06:31;;;;;;;;;;;3.50;99.90;;;;;;5030221;28;20268;-92
2021/12/07 06:08:56;;;;;;;;;;;3.40;99.90;;;;;;5028926;28;19913;-89
2021/12/07 06:11:24;;;;;;;;;;;3.20;99.90;;;;;;5045930;28;19939;-91
2021/12/07 06:13:50;;;;;;;;;;;3.10;99.90;;;;;;5044670;28;19917;-91
2021/12/07 06:16:16;;;;;;;;;;;3.00;99.90;;;;;;5044901;28;19991;-89
2021/12/07 06:18:43;;;;;;;;;;;2.90;99.90;;;;;;5029296;28;19952;-89
2021/12/07 06:21:09;;;;;;;;;;;2.80;99.90;;;;;;5030063;28;19925;-89
2021/12/07 06:23:35;;;;;;;;;;;2.80;99.90;;;;;;5029706;28;20198;-89
2021/12/07 06:26:01;;;;;;;;;;;2.70;99.90;;;;;;5029690;28;19924;-89
2021/12/07 06:28:26;;;;;;;;;;;2.70;99.90;;;;;;5030661;28;19913;-89
2021/12/07 06:30:52;;;;;;;;;;;2.70;99.90;;;;;;5029163;28;20274;-87
2021/12/07 06:33:19;;;;;;;;;;;2.70;99.90;;;;;;5029528;28;19917;-87
2021/12/07 06:35:45;;;;;;;;;;;2.70;99.90;;;;;;5030108;28;20220;-89
2021/12/07 06:38:11;;;;;;;;;;;2.70;99.90;;;;;;5030120;28;19909;-89
2021/12/07 06:40:36;;;;;;;;;;;2.60;99.90;;;;;;5030955;28;19922;-89
2021/12/07 06:43:02;;;;;;;;;;;2.60;99.90;;;;;;5046891;28;19917;-89
2021/12/07 06:45:28;;;;;;;;;;;2.60;99.90;;;;;;5045812;28;20709;-87
2021/12/07 06:47:54;;;;;;;;;;;2.70;99.90;;;;;;5045568;28;19913;-89
2021/12/07 06:50:20;;;;;;;;;;;2.70;99.90;;;;;;5045369;28;19939;-91
2021/12/07 06:52:46;;;;;;;;;;;2.60;99.90;;;;;;5045873;28;19914;-90
2021/12/07 06:55:11;;;;;;;;;;;2.50;99.90;;;;;;5046201;28;19921;-88
2021/12/07 06:57:37;;;;;;;;;;;2.50;99.90;;;;;;5029989;28;20320;-87
2021/12/07 07:00:07;;;;;;;;;;;2.40;99.90;;;;;;5029543;28;19921;-87
2021/12/07 07:02:32;;;;;;;;;;;2.40;99.90;;;;;;5022957;28;19988;-87
2021/12/07 07:04:58;;;;;;;;;;;2.30;99.90;;;;;;5049172;28;19948;-86
2021/12/07 07:07:24;;;;;;;;;;;2.30;99.90;;;;;;5033214;28;19917;-86
2021/12/07 07:09:50;;;;;;;;;;;2.30;99.90;;;;;;5033382;28;20344;-89
2021/12/07 07:12:16;;;;;;;;;;;2.20;99.90;;;;;;5032987;28;20321;-89
2021/12/07 07:14:42;;;;;;;;;;;2.20;99.90;;;;;;5031858;28;19913;-88
2021/12/07 07:17:07;;;;;;;;;;;2.10;99.90;;;;;;5034595;28;20322;-88
2021/12/07 07:19:33;;;;;;;;;;;2.10;99.90;;;;;;5032364;28;19924;-87
2021/12/07 07:22:01;;;;;;;;;;;2.00;99.90;;;;;;5033681;28;19921;-88
2021/12/07 07:24:30;;;;;;;;;;;2.00;99.90;;;;;;5033173;28;19920;-88
2021/12/07 07:26:56;;;;;;;;;;;1.90;99.90;;;;;;5034387;28;19975;-87
2021/12/07 07:29:21;;;;;;;;;;;2.00;99.90;;;;;;5029232;28;19925;-88
2021/12/07 07:31:47;;;;;;;;;;;1.90;99.90;;;;;;5032038;28;19917;-89
2021/12/07 07:34:12;;;;;;;;;;;1.90;99.90;;;;;;5034114;28;19956;-89
2021/12/07 07:36:38;;;;;;;;;;;1.90;99.90;;;;;;5033033;28;19913;-90
2021/12/07 07:39:04;;;;;;;;;;;1.90;99.90;;;;;;5033815;28;19913;-89
2021/12/07 07:41:29;;;;;;;;;;;1.80;99.90;;;;;;5047276;28;20209;-88
2021/12/07 07:43:55;;;;;;;;;;;1.80;99.90;;;;;;5031470;28;19929;-89
2021/12/07 07:46:20;;;;;;;;;;;1.80;99.90;;;;;;5048545;28;21128;-88
2021/12/07 07:48:46;;;;;;;;;;;1.80;99.90;;;;;;5032417;28;19920;-88
2021/12/07 07:51:12;;;;;;;;;;;1.90;99.90;;;;;;5031404;28;20006;-88
2021/12/07 07:53:37;;;;;;;;;;;1.90;99.90;;;;;;5046328;28;19983;-79
2021/12/07 07:56:03;;;;;;;;;;;2.00;99.90;;;;;;5034014;28;19917;-88
2021/12/07 07:58:29;;;;;;;;;;;2.00;99.90;;;;;;5033142;28;20297;-86
2021/12/07 08:00:55;;;;;;;;;;;2.00;99.90;;;;;;5049203;28;19932;-87
2021/12/07 08:03:20;;;;;;;;;;;1.90;99.90;;;;;;5021469;28;19917;-87
2021/12/07 08:05:46;;;;;;;;;;;1.90;99.90;;;;;;5032631;28;19963;-88
2021/12/07 08:08:12;;;;;;;;;;;1.90;99.90;;;;;;5049291;28;19920;-87
2021/12/07 08:10:37;;;;;;;;;;;1.90;99.90;;;;;;5023949;28;20336;-81
2021/12/07 08:13:05;;;;;;;;;;;1.90;99.90;;;;;;5032504;28;19917;-86
2021/12/07 08:15:31;;;;;;;;;;;2.00;99.90;;;;;;5048533;28;19924;-88
2021/12/07 08:17:57;;;;;;;;;;;2.00;99.90;;;;;;5048716;28;19972;-88
2021/12/07 08:20:23;;;;;;;;;;;2.00;99.90;;;;;;5032586;28;19917;-87
2021/12/07 08:22:49;;;;;;;;;;;2.00;99.90;;;;;;5031652;28;19939;-87
2021/12/07 08:25:14;;;;;;;;;;;2.00;99.90;;;;;;5031733;28;19913;-89
2021/12/07 08:27:40;;;;;;;;;;;2.00;99.90;;;;;;5029661;28;19958;-87
2021/12/07 08:30:07;;;;;;;;;;;2.00;99.90;;;;;;5029624;28;19922;-88
2021/12/07 08:32:33;;;;;;;;;;;2.10;99.90;;;;;;5028462;28;19975;-87
2021/12/07 08:34:58;;;;;;;;;;;2.10;99.90;;;;;;5029768;28;19925;-86
2021/12/07 08:37:24;;;;;;;;;;;2.20;99.90;;;;;;5031491;28;19917;-87
2021/12/07 08:39:49;;;;;;;;;;;2.20;99.90;;;;;;5029633;28;19959;-87
2021/12/07 08:42:15;;;;;;;;;;;2.30;99.90;;;;;;5047481;28;20610;-88
2021/12/07 08:44:41;;;;;;;;;;;2.30;99.90;;;;;;5031879;28;19932;-87
2021/12/07 08:47:09;;;;;;;;;;;2.30;99.90;;;;;;5033197;28;20004;-87
2021/12/07 08:49:35;;;;;;;;;;;2.30;99.90;;;;;;5048026;28;19923;-89
2021/12/07 08:52:01;;;;;;;;;;;2.30;99.90;;;;;;5031656;28;19917;-88
2021/12/07 08:59:52;;;;;;;;;;;2.20;99.90;;;;;;5032366;28;20327;-87
2021/12/07 09:02:19;;;;;;;;;;;2.30;99.90;;;;;;5028912;28;19925;-87
2021/12/07 09:04:45;;;;;;;;;;;2.30;99.90;;;;;;5032008;28;20282;-87
2021/12/07 09:07:11;;;;;;;;;;;2.40;99.90;;;;;;5029620;28;20224;-87
2021/12/07 09:09:37;;;;;;;;;;;2.60;99.90;;;;;;5030475;28;19927;-87
2021/12/07 09:12:06;;;;;;;;;;;2.60;99.90;;;;;;5038550;28;19967;-88
2021/12/07 09:14:32;;;;;;;;;;;2.70;99.90;;;;;;5047895;28;20196;-87
2021/12/07 09:16:58;;;;;;;;;;;2.70;99.90;;;;;;5021380;28;19961;-86
2021/12/07 09:19:24;;;;;;;;;;;2.70;99.90;;;;;;5029609;28;19956;-88
2021/12/07 09:21:49;;;;;;;;;;;2.80;99.90;;;;;;5026510;28;19933;-86
2021/12/07 09:24:15;;;;;;;;;;;2.80;99.90;;;;;;5029635;28;20217;-86
2021/12/07 09:26:41;;;;;;;;;;;2.80;99.90;;;;;;5023706;28;19913;-87
2021/12/07 09:29:07;;;;;;;;;;;2.90;99.90;;;;;;5029095;28;19928;-87
2021/12/07 09:31:32;;;;;;;;;;;2.90;99.90;;;;;;5030575;28;19925;-87
2021/12/07 09:33:58;;;;;;;;;;;3.00;99.90;;;;;;5046980;28;19917;-85
2021/12/07 09:36:25;;;;;;;;;;;3.10;99.90;;;;;;5029413;28;19916;-86
2021/12/07 09:38:51;;;;;;;;;;;3.10;99.90;;;;;;5046587;28;19917;-86
2021/12/07 09:41:18;;;;;;;;;;;3.10;99.90;;;;;;5028646;28;20011;-86
2021/12/07 09:43:47;;;;;;;;;;;3.20;99.90;;;;;;5028798;28;20192;-87
2021/12/07 09:46:15;;;;;;;;;;;3.30;99.90;;;;;;5030452;28;19925;-88
2021/12/07 09:48:42;;;;;;;;;;;3.40;99.90;;;;;;5030286;28;19921;-88
2021/12/07 09:51:09;;;;;;;;;;;3.50;99.90;;;;;;5027881;28;19924;-87
2021/12/07 09:53:34;;;;;;;;;;;3.60;99.90;;;;;;5028172;28;19914;-88
2021/12/07 09:56:00;;;;;;;;;;;3.80;99.90;;;;;;5029779;28;19923;-87
2021/12/07 09:58:26;;;;;;;;;;;4.00;99.90;;;;;;5044305;28;19967;-87
2021/12/07 10:00:53;;;;;;;;;;;4.20;99.90;;;;;;5016424;28;19928;-89
2021/12/07 10:03:21;;;;;;;;;;;4.30;99.90;;;;;;5018374;28;19932;-88
2021/12/07 10:05:47;;;;;;;;;;;4.30;99.90;;;;;;5030316;28;20355;-89
2021/12/07 10:08:13;;;;;;;;;;;4.30;99.90;;;;;;5028388;28;19917;-90
2021/12/07 10:10:43;;;;;;;;;;;4.30;99.90;;;;;;5030069;28;19921;-87
2021/12/07 10:13:09;;;;;;;;;;;4.40;99.90;;;;;;5029697;28;19999;-87
2021/12/07 10:15:35;;;;;;;;;;;4.40;99.90;;;;;;5027395;28;20008;-86
2021/12/07 10:18:12;;;;;;;;;;;4.50;99.90;;;;;;5029669;28;19913;-87
2021/12/07 10:20:39;;;;;;;;;;;4.50;99.90;;;;;;5030485;28;19921;-87
2021/12/07 10:23:15;;;;;;;;;;;4.50;99.90;;;;;;5045022;28;19913;-87
2021/12/07 10:25:46;;;;;;;;;;;4.50;99.90;;;;;;5029904;28;19913;-87
2021/12/07 10:28:26;;;;;;;;;;;4.50;99.90;;;;;;5030863;28;19913;-87
2021/12/07 10:30:52;;;;;;;;;;;4.60;99.90;;;;;;5030718;28;20021;-89
2021/12/07 10:33:27;;;;;;;;;;;4.70;99.90;;;;;;5029595;28;19996;-87
2021/12/07 10:36:04;;;;;;;;;;;4.70;99.90;;;;;;5034826;28;20332;-86
2021/12/07 10:38:30;;;;;;;;;;;4.70;99.90;;;;;;5033944;28;19924;-87
2021/12/07 10:40:57;;;;;;;;;;;4.80;99.90;;;;;;5048846;28;19940;-87
2021/12/07 10:43:41;;;;;;;;;;;4.80;99.90;;;;;;5034952;28;19921;-86
2021/12/07 10:46:25;;;;;;;;;;;4.90;99.90;;;;;;5030978;28;19924;-88
2021/12/07 10:49:06;;;;;;;;;;;5.00;99.90;;;;;;5031398;28;19913;-88
2021/12/07 10:51:32;;;;;;;;;;;5.00;99.90;;;;;;5032108;28;19920;-88
2021/12/07 10:53:57;;;;;;;;;;;5.10;99.90;;;;;;5032521;28;19921;-84
2021/12/07 10:56:30;;;;;;;;;;;5.20;99.90;;;;;;5047302;28;19917;-95
2021/12/07 10:59:02;;;;;;;;;;;5.30;99.90;;;;;;5047225;28;19979;-92
2021/12/07 11:01:38;;;;;;;;;;;5.40;99.90;;;;;;5016068;28;19929;-80
2021/12/07 11:04:24;;;;;;;;;;;5.40;99.90;;;;;;5036404;28;19928;-92
2021/12/07 11:07:02;;;;;;;;;;;5.50;99.90;;;;;;5035079;28;19996;-81
2021/12/07 11:09:27;;;;;;;;;;;5.50;99.90;;;;;;5037728;28;20472;-83
2021/12/07 11:12:09;;;;;;;;;;;5.50;99.90;;;;;;5036937;28;19913;-84
2021/12/07 11:14:48;;;;;;;;;;;5.50;99.90;;;;;;5023872;28;19925;-80
2021/12/07 11:17:14;;;;;;;;;;;5.60;99.90;;;;;;5031515;28;19918;-83
2021/12/07 11:19:40;;;;;;;;;;;5.60;99.90;;;;;;5024973;28;19959;-86
2021/12/07 11:22:05;;;;;;;;;;;5.70;99.90;;;;;;5032669;28;19917;-81
2021/12/07 11:24:37;;;;;;;;;;;5.80;99.90;;;;;;5025849;28;19917;-84
2021/12/07 11:29:56;;;;;;;;;;;5.90;99.90;;;;;;5033380;28;19963;-85
2021/12/07 11:32:21;;;;;;;;;;;5.90;99.90;;;;;;5031050;28;20190;-84
2021/12/07 11:34:47;;;;;;;;;;;5.90;99.90;;;;;;5026915;28;19920;-85
2021/12/07 11:37:14;;;;;;;;;;;6.00;99.90;;;;;;5033018;28;19913;-85
2021/12/07 11:39:49;;;;;;;;;;;6.10;99.90;;;;;;5034485;28;19960;-85
2021/12/07 11:42:17;;;;;;;;;;;6.00;99.90;;;;;;5025848;28;19918;-84
2021/12/07 11:44:45;;;;;;;;;;;6.10;99.90;;;;;;5023800;28;19928;-86
2021/12/07 11:47:11;;;;;;;;;;;6.00;99.90;;;;;;5048352;28;19925;-85
2021/12/07 11:49:38;;;;;;;;;;;6.10;99.90;;;;;;5027826;28;20367;-84
2021/12/07 11:52:04;;;;;;;;;;;6.00;99.90;;;;;;5045466;28;19916;-86
2021/12/07 11:54:32;;;;;;;;;;;6.10;99.90;;;;;;5045842;28;20319;-86
2021/12/07 11:56:59;;;;;;;;;;;6.10;99.90;;;;;;5032964;28;19917;-79
2021/12/07 11:59:24;;;;;;;;;;;6.00;99.90;;;;;;5036190;28;20043;-85
2021/12/07 12:01:51;;;;;;;;;;;6.00;99.90;;;;;;5028108;28;19999;-86
2021/12/07 12:04:18;;;;;;;;;;;6.00;99.90;;;;;;5030130;28;19925;-85
2021/12/07 12:06:47;;;;;;;;;;;6.00;99.90;;;;;;5035182;28;19920;-85
2021/12/07 12:09:13;;;;;;;;;;;6.00;99.90;;;;;;5049205;28;19917;-85
2021/12/07 12:11:51;;;;;;;;;;;5.90;99.90;;;;;;5035617;28;20031;-87
2021/12/07 12:14:19;;;;;;;;;;;5.90;99.90;;;;;;5036163;28;19967;-82
2021/12/07 12:17:04;;;;;;;;;;;6.00;99.90;;;;;;5035217;28;19913;-86
2021/12/07 12:19:48;;;;;;;;;;;5.90;99.90;;;;;;5035793;28;19913;-85
2021/12/07 12:22:21;;;;;;;;;;;5.90;99.90;;;;;;5030515;28;19990;-89
2021/12/07 12:24:48;;;;;;;;;;;5.90;99.90;;;;;;5037056;28;19937;-78
2021/12/07 12:27:18;;;;;;;;;;;5.90;99.90;;;;;;5052148;28;19924;-83
2021/12/07 12:29:45;;;;;;;;;;;5.90;99.90;;;;;;5036464;28;20324;-88
2021/12/07 12:32:10;;;;;;;;;;;5.90;99.90;;;;;;5049014;28;20220;-92
2021/12/07 12:34:38;;;;;;;;;;;6.00;99.90;;;;;;5035898;28;19913;-95
2021/12/07 12:37:09;;;;;;;;;;;6.00;99.90;;;;;;5035133;28;19920;-93
2021/12/07 12:39:47;;;;;;;;;;;6.00;99.90;;;;;;5037040;28;19919;-93
2021/12/07 12:42:27;;;;;;;;;;;6.00;99.90;;;;;;5048830;28;20242;-80
2021/12/07 12:44:58;;;;;;;;;;;5.90;99.90;;;;;;5035312;28;19917;-94
2021/12/07 12:47:25;;;;;;;;;;;5.80;99.90;;;;;;5036658;28;19996;-87
2021/12/07 12:49:51;;;;;;;;;;;5.80;99.90;;;;;;5036042;28;19921;-93
2021/12/07 12:52:35;;;;;;;;;;;5.70;99.90;;;;;;5037216;28;19917;-93
2021/12/07 12:55:01;;;;;;;;;;;5.70;99.90;;;;;;5035523;28;20327;-91
2021/12/07 12:57:26;;;;;;;;;;;5.70;99.90;;;;;;5051318;28;19917;-92
2021/12/07 12:59:52;;;;;;;;;;;5.70;99.90;;;;;;5052132;28;19916;-91
2021/12/07 13:02:18;;;;;;;;;;;5.60;99.90;;;;;;5036627;28;19931;-89
2021/12/07 13:04:59;;;;;;;;;;;5.60;99.90;;;;;;5036112;28;19936;-90
2021/12/07 13:07:25;;;;;;;;;;;5.60;99.90;;;;;;5030481;28;20009;-93
2021/12/07 13:09:55;;;;;;;;;;;5.60;99.90;;;;;;5035591;28;19952;-87
2021/12/07 13:12:24;;;;;;;;;;;5.50;99.90;;;;;;5035633;28;19913;-84
2021/12/07 13:14:50;;;;;;;;;;;5.50;99.90;;;;;;5035049;28;20035;-77
2021/12/07 13:17:15;;;;;;;;;;;5.50;99.90;;;;;;5033888;28;19924;-79
2021/12/07 13:20:00;;;;;;;;;;;5.50;99.90;;;;;;5035503;28;19959;-76
2021/12/07 13:22:32;;;;;;;;;;;5.50;99.90;;;;;;5034933;28;19939;-77
2021/12/07 13:25:03;;;;;;;;;;;5.40;99.90;;;;;;5032432;28;20330;-77
2021/12/07 13:27:29;;;;;;;;;;;5.40;99.90;;;;;;5050452;28;19939;-77
2021/12/07 13:29:54;;;;;;;;;;;5.30;99.90;;;;;;5033755;28;20466;-77
2021/12/07 13:32:20;;;;;;;;;;;5.30;99.90;;;;;;5032540;28;19913;-78
2021/12/07 13:34:58;;;;;;;;;;;5.30;99.90;;;;;;5034608;28;19920;-77
2021/12/07 13:37:42;;;;;;;;;;;5.30;99.90;;;;;;5033302;28;20308;-77
2021/12/07 13:40:16;;;;;;;;;;;5.20;99.90;;;;;;5032297;28;19921;-77
2021/12/07 13:42:46;;;;;;;;;;;5.20;99.90;;;;;;5033574;28;19917;-78
2021/12/07 13:45:12;;;;;;;;;;;5.10;99.90;;;;;;5033107;28;20008;-77
2021/12/07 13:47:42;;;;;;;;;;;5.10;99.90;;;;;;5032153;28;19924;-77
2021/12/07 13:50:10;;;;;;;;;;;5.00;99.90;;;;;;5048571;28;19971;-76
2021/12/07 13:52:37;;;;;;;;;;;5.00;99.90;;;;;;5046801;28;19944;-76
2021/12/07 13:55:05;;;;;;;;;;;5.00;99.90;;;;;;5032271;28;20320;-77
2021/12/07 13:57:35;;;;;;;;;;;5.00;99.90;;;;;;5034436;28;19953;-77
2021/12/07 14:00:04;;;;;;;;;;;5.00;99.90;;;;;;5027875;28;19913;-76
2021/12/07 14:02:30;;;;;;;;;;;5.00;99.90;;;;;;5045578;28;19921;-78
2021/12/07 14:05:13;;;;;;;;;;;5.00;99.90;;;;;;5021738;28;19919;-76
2021/12/07 14:07:39;;;;;;;;;;;5.00;99.90;;;;;;5024097;28;19920;-76
2021/12/07 14:10:08;;;;;;;;;;;4.90;99.90;;;;;;5031063;28;19917;-77
2021/12/07 14:12:34;;;;;;;;;;;4.90;99.90;;;;;;5036150;28;20209;-77
2021/12/07 14:15:07;;;;;;;;;;;4.80;99.90;;;;;;5043736;28;19917;-76
2021/12/07 14:17:40;;;;;;;;;;;4.80;99.90;;;;;;5031867;28;19932;-76
2021/12/07 14:20:06;;;;;;;;;;;4.70;99.90;;;;;;5052498;28;20347;-76
2021/12/07 14:22:31;;;;;;;;;;;4.70;99.90;;;;;;5033905;28;20011;-78
2021/12/07 14:24:57;;;;;;;;;;;4.60;99.90;;;;;;5032693;28;20220;-77
2021/12/07 14:27:22;;;;;;;;;;;4.60;99.90;;;;;;5030609;28;19924;-76
2021/12/07 14:29:48;;;;;;;;;;;4.50;99.90;;;;;;5027478;28;19932;-76
2021/12/07 14:32:13;;;;;;;;;;;4.50;99.90;;;;;;5030257;28;19921;-77
2021/12/07 14:34:42;;;;;;;;;;;4.50;99.90;;;;;;5034120;28;19943;-76
2021/12/07 14:37:08;;;;;;;;;;;4.50;99.90;;;;;;5035119;28;19921;-76
2021/12/07 14:39:35;;;;;;;;;;;4.40;99.90;;;;;;5032618;28;19931;-76
2021/12/07 14:42:06;;;;;;;;;;;4.40;99.90;;;;;;5046058;28;20231;-76
2021/12/07 14:44:33;;;;;;;;;;;4.40;99.90;;;;;;5036929;28;20331;-77
2021/12/07 14:47:04;;;;;;;;;;;4.30;99.90;;;;;;5033846;28;19935;-76
2021/12/07 14:49:30;;;;;;;;;;;4.30;99.90;;;;;;5035732;28;19949;-76
2021/12/07 14:51:57;;;;;;;;;;;4.30;99.90;;;;;;5037684;28;19917;-77
2021/12/07 14:54:26;;;;;;;;;;;4.30;99.90;;;;;;5036434;28;19940;-76
2021/12/07 14:56:55;;;;;;;;;;;4.20;99.90;;;;;;5034268;28;19917;-78
2021/12/07 14:59:22;;;;;;;;;;;4.20;99.90;;;;;;5036135;28;20306;-78
2021/12/07 15:01:50;;;;;;;;;;;4.20;99.90;;;;;;5047346;28;20029;-77
2021/12/07 15:04:16;;;;;;;;;;;4.20;99.90;;;;;;5036298;28;19943;-78
2021/12/07 15:06:48;;;;;;;;;;;4.20;99.90;;;;;;5036117;28;20352;-77
2021/12/07 15:09:15;;;;;;;;;;;4.10;99.90;;;;;;5036176;28;19921;-77
2021/12/07 15:11:41;;;;;;;;;;;4.20;99.90;;;;;;5036465;28;19932;-78
2021/12/07 15:14:09;;;;;;;;;;;4.20;99.90;;;;;;5032684;28;19967;-78
2021/12/07 15:16:35;;;;;;;;;;;4.20;99.90;;;;;;5031037;28;19909;-77
2021/12/07 15:19:01;;;;;;;;;;;4.20;99.90;;;;;;5033449;28;19917;-77
2021/12/07 15:21:28;;;;;;;;;;;4.20;99.90;;;;;;5034791;28;20267;-78
2021/12/07 15:23:55;;;;;;;;;;;4.20;99.90;;;;;;5048469;28;19910;-77
2021/12/07 15:26:21;;;;;;;;;;;4.20;99.90;;;;;;5030425;28;19913;-76
2021/12/07 15:28:59;;;;;;;;;;;4.20;99.90;;;;;;5024431;28;19913;-76
2021/12/07 15:31:26;;;;;;;;;;;4.30;99.90;;;;;;5024877;28;19917;-76
2021/12/07 15:33:52;;;;;;;;;;;4.30;99.90;;;;;;5048813;28;20017;-77
2021/12/07 15:36:19;;;;;;;;;;;4.20;99.90;;;;;;5044189;28;19987;-76
2021/12/07 15:38:45;;;;;;;;;;;4.20;99.90;;;;;;5026232;28;20004;-76
2021/12/07 15:41:11;;;;;;;;;;;4.30;99.90;;;;;;5034118;28;20004;-77
2021/12/07 15:43:44;;;;;;;;;;;4.30;99.90;;;;;;5031093;28;19920;-76
2021/12/07 15:46:16;;;;;;;;;;;4.20;99.90;;;;;;5029208;28;20224;-76
2021/12/07 15:48:42;;;;;;;;;;;4.30;99.90;;;;;;5028134;28;19964;-78
2021/12/07 15:51:08;;;;;;;;;;;4.20;99.90;;;;;;5039546;28;19925;-76
2021/12/07 15:53:34;;;;;;;;;;;4.20;99.90;;;;;;5028274;28;20259;-76
2021/12/07 15:56:02;;;;;;;;;;;4.30;99.90;;;;;;5031891;28;19913;-75
2021/12/07 15:58:29;;;;;;;;;;;4.30;99.90;;;;;;5043637;28;19927;-76
2021/12/07 16:00:59;;;;;;;;;;;4.30;99.90;;;;;;5032934;28;20311;-75
2021/12/07 16:03:29;;;;;;;;;;;4.30;99.90;;;;;;5024228;28;19920;-77
2021/12/07 16:05:57;;;;;;;;;;;4.30;99.90;;;;;;5025069;28;21010;-78
2021/12/07 16:08:25;;;;;;;;;;;4.30;99.90;;;;;;5026950;28;19914;-79
2021/12/07 16:10:54;;;;;;;;;;;4.30;99.90;;;;;;5028462;28;19913;-76
2021/12/07 16:13:23;;;;;;;;;;;4.30;99.90;;;;;;5051712;28;19920;-77
2021/12/07 16:15:53;;;;;;;;;;;4.30;99.90;;;;;;5034238;28;19939;-76
2021/12/07 16:18:18;;;;;;;;;;;4.30;99.90;;;;;;5032379;28;19917;-77